Time;durP1;ratioP1;P1;durP2;ratioP2;P2;SDS_P1;SDS_P2;PMS_P1;PMS_P2;Temp;Humidity;BMP_temperature;BMP_pressure;BME280_temperature;BME280_humidity;BME280_pressure;Samples;Min_cycle;Max_cycle;Signal;HPM_P1;HPM_P2
2023/07/22 00:01:43;;;;;;;11.63;8.60;;;16.70;69.00;;;;;;5027631;28;20483;-68
2023/07/22 00:04:10;;;;;;;15.20;8.80;;;16.70;69.60;;;;;;5025158;28;20454;-69
2023/07/22 00:06:41;;;;;;;10.27;7.57;;;16.80;70.20;;;;;;5025776;28;20544;-69
2023/07/22 00:09:09;;;;;;;10.87;7.40;;;16.80;70.90;;;;;;5025204;28;20455;-69
2023/07/22 00:11:36;;;;;;;13.40;8.67;;;16.80;70.20;;;;;;5007009;28;20467;-69
2023/07/22 00:14:06;;;;;;;12.90;8.20;;;16.80;71.60;;;;;;5024002;28;20494;-68
2023/07/22 00:16:33;;;;;;;19.53;8.27;;;16.80;71.10;;;;;;5024248;28;20543;-69
2023/07/22 00:19:01;;;;;;;14.73;9.73;;;16.80;71.00;;;;;;5024025;28;20953;-69
2023/07/22 00:21:29;;;;;;;14.60;8.70;;;16.90;71.20;;;;;;5023593;28;20976;-68
2023/07/22 00:23:59;;;;;;;16.90;9.00;;;16.90;71.50;;;;;;5023688;28;20451;-68
2023/07/22 00:26:25;;;;;;;20.40;8.53;;;17.00;71.30;;;;;;5023226;28;20444;-69
2023/07/22 00:28:52;;;;;;;15.83;8.37;;;17.00;70.40;;;;;;5023997;28;20462;-69
2023/07/22 00:31:19;;;;;;;19.60;7.70;;;17.00;69.90;;;;;;5023918;28;20464;-68
2023/07/22 00:33:46;;;;;;;12.30;7.00;;;17.10;69.90;;;;;;5024523;28;20486;-68
2023/07/22 00:36:13;;;;;;;17.63;7.33;;;17.10;69.30;;;;;;5025030;28;20463;-68
2023/07/22 00:38:40;;;;;;;20.10;7.80;;;17.10;69.10;;;;;;5024054;28;20498;-69
2023/07/22 00:41:09;;;;;;;20.97;8.37;;;17.20;69.10;;;;;;5023749;28;20483;-68
2023/07/22 00:43:36;;;;;;;21.40;7.90;;;17.20;67.90;;;;;;5023511;28;20466;-69
2023/07/22 00:46:03;;;;;;;17.13;8.23;;;17.20;67.50;;;;;;5023703;28;20458;-69
2023/07/22 00:48:30;;;;;;;16.50;7.33;;;17.20;67.30;;;;;;5022813;28;20455;-69
2023/07/22 00:50:58;;;;;;;18.50;7.37;;;17.20;67.40;;;;;;5022456;28;20464;-68
2023/07/22 00:53:25;;;;;;;18.77;8.50;;;17.20;67.10;;;;;;5018732;28;20447;-68
2023/07/22 00:55:52;;;;;;;15.27;7.83;;;17.20;66.50;;;;;;5020913;28;20455;-69
2023/07/22 00:58:21;;;;;;;16.93;6.90;;;17.10;66.70;;;;;;5022380;28;20448;-69
2023/07/22 01:00:50;;;;;;;20.57;6.97;;;17.20;65.80;;;;;;5020736;28;20542;-68
2023/07/22 01:03:18;;;;;;;12.87;6.80;;;17.10;67.00;;;;;;5022724;28;20452;-68
2023/07/22 01:05:47;;;;;;;24.70;7.20;;;17.10;66.30;;;;;;5021825;28;20500;-69
2023/07/22 01:08:14;;;;;;;17.73;8.13;;;17.10;65.80;;;;;;5021695;28;20513;-69
2023/07/22 01:10:42;;;;;;;12.17;6.57;;;17.10;65.30;;;;;;5021229;28;20833;-68
2023/07/22 01:13:09;;;;;;;10.53;6.37;;;17.10;65.40;;;;;;5021803;28;20480;-69
2023/07/22 01:15:38;;;;;;;12.37;6.80;;;17.10;65.20;;;;;;5022236;28;20458;-68
2023/07/22 01:18:05;;;;;;;18.90;8.13;;;17.00;65.20;;;;;;5020286;28;20455;-69
2023/07/22 01:20:33;;;;;;;11.10;6.57;;;17.00;65.40;;;;;;5022476;28;20502;-68
2023/07/22 01:23:02;;;;;;;12.10;6.87;;;16.90;65.40;;;;;;5021893;28;20518;-69
2023/07/22 01:25:30;;;;;;;13.80;7.47;;;16.90;65.80;;;;;;5021959;28;20452;-69
2023/07/22 01:28:00;;;;;;;10.83;7.10;;;16.90;66.00;;;;;;5020046;28;20474;-67
2023/07/22 01:30:28;;;;;;;10.93;7.20;;;16.80;65.80;;;;;;5021183;28;20475;-68
2023/07/22 01:32:55;;;;;;;9.97;6.93;;;16.80;66.10;;;;;;5022630;28;20466;-69
2023/07/22 01:35:21;;;;;;;14.17;7.20;;;16.80;65.70;;;;;;5022464;28;20455;-69
2023/07/22 01:37:48;;;;;;;9.50;6.43;;;16.80;66.10;;;;;;5022036;28;20451;-69
2023/07/22 01:40:17;;;;;;;16.67;7.07;;;16.80;66.10;;;;;;5022664;28;20471;-68
2023/07/22 01:42:45;;;;;;;12.53;7.53;;;16.90;65.90;;;;;;5021682;28;20570;-68
2023/07/22 01:45:12;;;;;;;12.60;6.80;;;16.90;65.80;;;;;;5023018;28;20455;-68
2023/07/22 01:47:40;;;;;;;12.03;7.40;;;16.90;65.80;;;;;;5020981;28;20455;-69
2023/07/22 01:50:08;;;;;;;16.90;6.70;;;16.90;66.20;;;;;;5022169;28;20503;-68
2023/07/22 01:52:36;;;;;;;13.37;6.97;;;16.80;65.90;;;;;;5022023;28;20444;-68
2023/07/22 01:55:05;;;;;;;17.80;6.23;;;16.80;66.20;;;;;;5022445;28;20459;-69
2023/07/22 01:57:33;;;;;;;13.60;7.50;;;16.80;66.30;;;;;;5020785;28;20455;-69
2023/07/22 02:00:00;;;;;;;12.00;7.07;;;16.70;66.50;;;;;;5022889;28;20471;-69
2023/07/22 02:02:27;;;;;;;14.03;7.60;;;16.70;66.50;;;;;;5021905;28;20480;-69
2023/07/22 02:04:54;;;;;;;9.67;6.33;;;16.70;66.40;;;;;;5020948;28;20479;-67
2023/07/22 02:07:20;;;;;;;13.60;6.30;;;16.70;66.60;;;;;;5021295;28;20452;-69
2023/07/22 02:09:47;;;;;;;10.17;6.70;;;16.60;66.70;;;;;;5022176;28;20471;-67
2023/07/22 02:12:14;;;;;;;8.70;6.47;;;16.60;66.70;;;;;;5022145;28;20454;-69
2023/07/22 02:14:43;;;;;;;13.93;6.77;;;16.60;67.00;;;;;;5026029;28;20598;-68
2023/07/22 02:17:11;;;;;;;10.00;6.40;;;16.60;67.00;;;;;;5030068;28;20465;-69
2023/07/22 02:19:38;;;;;;;12.63;7.57;;;16.60;67.10;;;;;;5025948;28;20458;-68
2023/07/22 02:22:05;;;;;;;11.57;7.00;;;16.50;67.30;;;;;;5025366;28;20510;-67
2023/07/22 02:24:34;;;;;;;9.73;6.27;;;16.50;67.10;;;;;;5025628;28;20451;-68
2023/07/22 02:27:01;;;;;;;13.93;6.97;;;16.50;67.20;;;;;;5026709;28;20452;-68
2023/07/22 02:29:28;;;;;;;16.47;6.40;;;16.50;67.40;;;;;;5026449;28;20451;-67
2023/07/22 02:31:56;;;;;;;14.90;6.97;;;16.50;67.40;;;;;;5027101;28;20534;-68
2023/07/22 02:34:23;;;;;;;12.10;7.47;;;16.50;67.60;;;;;;5025983;28;20462;-68
2023/07/22 02:36:51;;;;;;;15.83;7.13;;;16.50;67.40;;;;;;5024806;28;20461;-68
2023/07/22 02:39:17;;;;;;;19.97;8.27;;;16.60;67.60;;;;;;5025899;28;20509;-69
2023/07/22 02:41:44;;;;;;;15.63;6.40;;;16.50;67.30;;;;;;5026148;28;20536;-68
2023/07/22 02:44:13;;;;;;;15.43;6.83;;;16.60;67.30;;;;;;5025383;28;20451;-68
2023/07/22 02:46:42;;;;;;;10.20;7.20;;;16.60;67.50;;;;;;5025960;28;20478;-69
2023/07/22 02:49:11;;;;;;;15.13;7.80;;;16.60;67.30;;;;;;5024360;28;20592;-69
2023/07/22 02:51:37;;;;;;;12.57;5.97;;;16.60;67.10;;;;;;5026880;28;20468;-68
2023/07/22 02:54:05;;;;;;;11.43;6.50;;;16.70;67.10;;;;;;5028198;28;20447;-68
2023/07/22 02:56:33;;;;;;;13.00;6.17;;;16.70;66.70;;;;;;5026057;28;20447;-68
2023/07/22 02:59:00;;;;;;;14.00;7.60;;;16.70;66.40;;;;;;5024527;28;20478;-68
2023/07/22 03:01:26;;;;;;;11.63;6.07;;;16.70;66.60;;;;;;5024802;28;20475;-68
2023/07/22 03:03:54;;;;;;;10.30;6.67;;;16.60;66.80;;;;;;5025890;28;20458;-68
2023/07/22 03:06:22;;;;;;;15.50;6.87;;;16.60;66.80;;;;;;5025578;28;20452;-67
2023/07/22 03:08:49;;;;;;;16.80;6.33;;;16.60;66.80;;;;;;5025544;28;20451;-68
2023/07/22 03:11:17;;;;;;;11.20;7.37;;;16.60;66.80;;;;;;5021426;28;20876;-69
2023/07/22 03:13:44;;;;;;;10.87;6.30;;;16.60;67.20;;;;;;5022953;28;20463;-68
2023/07/22 03:16:11;;;;;;;11.13;6.97;;;16.50;67.30;;;;;;5024988;28;20456;-68
2023/07/22 03:18:41;;;;;;;8.07;5.83;;;16.50;67.30;;;;;;5025240;28;20458;-68
2023/07/22 03:21:08;;;;;;;14.73;8.10;;;16.50;67.60;;;;;;5024778;28;20499;-67
2023/07/22 03:23:37;;;;;;;13.63;7.00;;;16.40;68.30;;;;;;5024399;28;20479;-68
2023/07/22 03:26:04;;;;;;;14.17;6.57;;;16.40;68.30;;;;;;5025217;28;20963;-68
2023/07/22 03:28:30;;;;;;;12.17;6.80;;;16.40;68.50;;;;;;5024866;28;20450;-68
2023/07/22 03:30:57;;;;;;;10.50;5.60;;;16.40;68.90;;;;;;5025291;28;20467;-68
2023/07/22 03:33:24;;;;;;;11.50;6.80;;;16.40;69.20;;;;;;5022893;28;20443;-67
2023/07/22 03:35:51;;;;;;;8.83;6.30;;;16.40;69.60;;;;;;5007493;28;20447;-68
2023/07/22 03:38:18;;;;;;;12.43;6.57;;;16.40;69.80;;;;;;5024417;28;20483;-68
2023/07/22 03:40:47;;;;;;;8.70;6.97;;;16.40;70.00;;;;;;5024133;28;20502;-68
2023/07/22 03:43:14;;;;;;;11.17;7.30;;;16.40;70.30;;;;;;5024441;28;20475;-67
2023/07/22 03:45:41;;;;;;;10.10;6.03;;;16.40;70.20;;;;;;5025215;28;20451;-69
2023/07/22 03:48:09;;;;;;;13.10;6.70;;;16.40;70.70;;;;;;5024482;28;20458;-69
2023/07/22 03:50:35;;;;;;;11.87;6.67;;;16.40;69.60;;;;;;5025678;28;20470;-67
2023/07/22 03:53:03;;;;;;;12.07;6.30;;;16.50;70.50;;;;;;5030639;28;20452;-68
2023/07/22 03:55:30;;;;;;;12.23;7.77;;;16.50;70.70;;;;;;5027021;28;20443;-69
2023/07/22 03:57:58;;;;;;;16.77;7.43;;;16.50;70.90;;;;;;5029320;28;20451;-68
2023/07/22 04:00:24;;;;;;;15.03;6.40;;;16.50;71.50;;;;;;5023607;28;20503;-67
2023/07/22 04:02:52;;;;;;;11.93;7.00;;;16.50;71.60;;;;;;5023819;28;21004;-67
2023/07/22 04:05:19;;;;;;;14.93;7.53;;;16.50;71.60;;;;;;5024642;28;20451;-67
2023/07/22 04:07:46;;;;;;;12.93;7.33;;;16.60;72.10;;;;;;5025146;28;20457;-68
2023/07/22 04:10:13;;;;;;;13.63;8.07;;;16.60;71.20;;;;;;5024088;28;20475;-68
2023/07/22 04:12:40;;;;;;;14.47;7.00;;;16.60;71.50;;;;;;5023369;28;20479;-69
2023/07/22 04:15:09;;;;;;;13.67;6.50;;;16.60;71.50;;;;;;5024209;28;20844;-69
2023/07/22 04:17:35;;;;;;;23.73;7.40;;;16.60;70.60;;;;;;5024414;28;20451;-68
2023/07/22 04:20:03;;;;;;;10.10;7.07;;;16.60;70.10;;;;;;5006768;28;20468;-68
2023/07/22 04:22:32;;;;;;;14.77;6.83;;;16.60;70.00;;;;;;5022570;28;20478;-68
2023/07/22 04:25:07;;;;;;;18.43;6.80;;;16.70;69.70;;;;;;5023228;28;20550;-68
2023/07/22 04:27:34;;;;;;;16.13;7.40;;;16.70;71.00;;;;;;5023759;28;20443;-69
2023/07/22 04:30:01;;;;;;;14.33;7.27;;;16.60;70.10;;;;;;5022571;28;20483;-68
2023/07/22 04:32:30;;;;;;;15.23;8.53;;;16.60;70.40;;;;;;5027262;28;20450;-69
2023/07/22 04:34:57;;;;;;;21.27;8.33;;;16.60;70.70;;;;;;5029503;28;20455;-68
2023/07/22 04:37:24;;;;;;;19.73;8.03;;;16.60;70.30;;;;;;5026929;28;20555;-69
2023/07/22 04:39:51;;;;;;;22.23;7.13;;;16.70;70.10;;;;;;5025010;28;20471;-67
2023/07/22 04:42:17;;;;;;;19.67;7.63;;;16.70;69.90;;;;;;5023752;28;20479;-69
2023/07/22 04:44:45;;;;;;;20.40;8.03;;;16.70;69.70;;;;;;5024488;28;20455;-69
2023/07/22 04:47:13;;;;;;;16.53;7.37;;;16.80;70.00;;;;;;5024165;28;20452;-69
2023/07/22 04:49:41;;;;;;;14.83;6.63;;;16.80;69.20;;;;;;5024203;28;20455;-68
2023/07/22 04:52:08;;;;;;;23.73;7.50;;;16.80;69.20;;;;;;5024221;28;20447;-69
2023/07/22 04:54:35;;;;;;;18.10;8.07;;;16.90;69.60;;;;;;5023986;28;20452;-69
2023/07/22 04:57:02;;;;;;;15.10;6.50;;;16.90;68.80;;;;;;5023723;28;20448;-70
2023/07/22 04:59:29;;;;;;;17.27;6.60;;;17.00;69.00;;;;;;5024027;28;20458;-67
2023/07/22 05:01:56;;;;;;;10.47;6.73;;;17.00;68.90;;;;;;5023540;28;20461;-68
2023/07/22 05:04:25;;;;;;;15.97;6.30;;;17.00;68.90;;;;;;5023818;28;20458;-68
2023/07/22 05:06:54;;;;;;;18.77;6.93;;;17.00;68.50;;;;;;5023479;28;20447;-69
2023/07/22 05:09:21;;;;;;;18.73;6.77;;;17.00;68.70;;;;;;5024607;28;20454;-69
2023/07/22 05:11:47;;;;;;;14.30;7.27;;;17.00;68.50;;;;;;5026601;28;20468;-68
2023/07/22 05:14:14;;;;;;;20.57;6.80;;;17.00;68.50;;;;;;5022636;28;20462;-69
2023/07/22 05:16:43;;;;;;;10.80;5.70;;;16.90;68.70;;;;;;5023292;28;20838;-69
2023/07/22 05:19:10;;;;;;;12.10;6.47;;;16.90;68.60;;;;;;5023372;28;20454;-69
2023/07/22 05:21:37;;;;;;;11.30;6.90;;;17.00;68.80;;;;;;5023052;28;20467;-68
2023/07/22 05:24:06;;;;;;;16.10;7.10;;;17.00;68.60;;;;;;5022693;28;20486;-69
2023/07/22 05:26:32;;;;;;;13.57;7.17;;;17.00;68.70;;;;;;5024245;28;20502;-69
2023/07/22 05:29:01;;;;;;;11.80;6.30;;;17.00;68.60;;;;;;5021395;28;20447;-68
2023/07/22 05:31:28;;;;;;;12.97;6.30;;;17.00;69.20;;;;;;5021216;28;20470;-69
2023/07/22 05:33:55;;;;;;;14.87;6.20;;;17.10;68.70;;;;;;5022720;28;20447;-69
2023/07/22 05:36:22;;;;;;;9.87;5.70;;;17.10;68.60;;;;;;5022730;28;20461;-69
2023/07/22 05:38:49;;;;;;;7.77;5.63;;;17.20;68.90;;;;;;5023439;28;20547;-69
2023/07/22 05:41:17;;;;;;;16.80;6.97;;;17.20;68.60;;;;;;5022935;28;20467;-68
2023/07/22 05:43:44;;;;;;;13.60;6.37;;;17.20;68.50;;;;;;5023174;28;20490;-68
2023/07/22 05:46:11;;;;;;;11.40;5.57;;;17.20;67.70;;;;;;5022740;28;20443;-69
2023/07/22 05:48:38;;;;;;;13.93;6.73;;;17.20;67.80;;;;;;5021699;28;20458;-69
2023/07/22 05:51:04;;;;;;;9.37;6.77;;;17.20;67.70;;;;;;5021983;28;20834;-68
2023/07/22 05:53:31;;;;;;;10.10;6.60;;;17.20;67.60;;;;;;5023530;28;20448;-69
2023/07/22 05:56:00;;;;;;;11.53;6.30;;;17.30;67.60;;;;;;5023961;28;20458;-69
2023/07/22 05:58:28;;;;;;;21.93;6.53;;;17.30;67.60;;;;;;5026907;28;20455;-69
2023/07/22 06:00:58;;;;;;;16.63;6.70;;;17.40;67.30;;;;;;5027316;28;20474;-68
2023/07/22 06:03:25;;;;;;;11.07;6.90;;;17.40;67.60;;;;;;5026348;28;20483;-68
2023/07/22 06:05:51;;;;;;;15.30;6.80;;;17.50;67.50;;;;;;5025621;28;20447;-69
2023/07/22 06:08:19;;;;;;;17.07;7.17;;;17.60;67.80;;;;;;5026772;28;20448;-69
2023/07/22 06:10:46;;;;;;;11.43;7.30;;;17.60;67.90;;;;;;5026020;28;20541;-68
2023/07/22 06:13:12;;;;;;;13.50;7.73;;;17.90;67.90;;;;;;5026155;28;20455;-69
2023/07/22 06:15:40;;;;;;;13.20;6.87;;;18.00;66.90;;;;;;5026432;28;20459;-69
2023/07/22 06:18:08;;;;;;;10.97;7.07;;;18.20;66.40;;;;;;5026543;28;20447;-68
2023/07/22 06:20:38;;;;;;;17.67;7.20;;;18.30;66.00;;;;;;5026287;28;20503;-68
2023/07/22 06:23:05;;;;;;;13.77;7.37;;;18.50;64.80;;;;;;5026230;28;21083;-69
2023/07/22 06:25:32;;;;;;;12.40;7.27;;;18.70;63.90;;;;;;5024553;28;20471;-69
2023/07/22 06:27:59;;;;;;;8.83;7.17;;;18.80;64.60;;;;;;5025874;28;20460;-69
2023/07/22 06:30:26;;;;;;;10.20;7.93;;;18.80;63.60;;;;;;5025456;28;20494;-68
2023/07/22 06:32:54;;;;;;;10.73;8.10;;;18.90;64.10;;;;;;5026106;28;20447;-69
2023/07/22 06:35:21;;;;;;;13.27;7.87;;;18.90;64.50;;;;;;5026121;28;20464;-68
2023/07/22 06:37:47;;;;;;;11.07;6.80;;;19.00;64.80;;;;;;5026052;28;20451;-69
2023/07/22 06:40:14;;;;;;;8.90;6.87;;;19.10;62.90;;;;;;5033408;28;20554;-68
2023/07/22 06:42:42;;;;;;;9.67;8.00;;;19.20;62.80;;;;;;5028516;28;20483;-68
2023/07/22 06:45:10;;;;;;;9.70;6.70;;;19.30;63.20;;;;;;5027170;28;20447;-69
2023/07/22 06:47:37;;;;;;;9.47;7.87;;;19.50;63.20;;;;;;5027462;28;20439;-69
2023/07/22 06:50:08;;;;;;;15.37;6.80;;;19.60;62.60;;;;;;5033661;28;20475;-68
2023/07/22 06:52:35;;;;;;;11.03;7.13;;;19.70;61.70;;;;;;5029653;28;20438;-68
2023/07/22 06:55:03;;;;;;;9.83;7.20;;;19.80;61.70;;;;;;5027281;28;20451;-69
2023/07/22 06:57:31;;;;;;;14.17;7.20;;;19.90;61.30;;;;;;5024363;28;20451;-69
2023/07/22 06:59:58;;;;;;;17.73;7.27;;;19.90;60.60;;;;;;5026221;28;20467;-68
2023/07/22 07:02:28;;;;;;;13.37;8.33;;;19.90;62.10;;;;;;5024054;28;20455;-69
2023/07/22 07:04:54;;;;;;;20.33;8.10;;;19.80;61.00;;;;;;5025944;28;20451;-68
2023/07/22 07:07:22;;;;;;;13.33;7.50;;;19.90;62.10;;;;;;5025791;28;20452;-69
2023/07/22 07:09:52;;;;;;;14.20;7.00;;;19.90;61.10;;;;;;5024761;28;20819;-68
2023/07/22 07:12:22;;;;;;;10.40;6.80;;;19.90;61.30;;;;;;5025432;28;20810;-70
2023/07/22 07:14:51;;;;;;;11.17;6.97;;;20.10;60.90;;;;;;5026133;28;20438;-69
2023/07/22 07:17:18;;;;;;;10.47;7.33;;;20.20;62.20;;;;;;5026014;28;20451;-69
2023/07/22 07:19:47;;;;;;;9.50;7.97;;;20.30;59.80;;;;;;5023843;28;20448;-68
2023/07/22 07:22:19;;;;;;;9.10;7.40;;;20.30;59.60;;;;;;5026026;28;20454;-68
2023/07/22 07:24:49;;;;;;;10.00;7.47;;;20.40;60.20;;;;;;5027643;28;20555;-69
2023/07/22 07:27:16;;;;;;;9.13;8.07;;;20.50;59.40;;;;;;5026985;28;20498;-69
2023/07/22 07:29:45;;;;;;;9.30;8.23;;;20.50;59.20;;;;;;5025022;28;20558;-68
2023/07/22 07:32:12;;;;;;;9.70;8.43;;;20.60;59.20;;;;;;5022174;28;20447;-70
2023/07/22 07:34:38;;;;;;;8.57;7.67;;;20.50;58.30;;;;;;5024405;28;20455;-69
2023/07/22 07:37:06;;;;;;;18.80;7.90;;;20.50;58.60;;;;;;5024736;28;20475;-69
2023/07/22 07:39:35;;;;;;;9.70;8.17;;;20.40;59.00;;;;;;5024140;28;20478;-68
2023/07/22 07:42:05;;;;;;;9.20;7.40;;;20.50;59.90;;;;;;5024533;28;20443;-69
2023/07/22 07:44:32;;;;;;;10.80;7.30;;;20.50;59.10;;;;;;5025593;28;20487;-68
2023/07/22 07:47:01;;;;;;;10.33;8.23;;;20.60;59.10;;;;;;5024927;28;20476;-69
2023/07/22 07:49:28;;;;;;;10.20;7.70;;;20.70;58.70;;;;;;5025316;28;20451;-68
2023/07/22 07:51:54;;;;;;;8.83;7.33;;;20.90;58.20;;;;;;5024811;28;20447;-69
2023/07/22 07:54:24;;;;;;;8.97;7.23;;;21.10;58.30;;;;;;5023022;28;20450;-69
2023/07/22 07:56:52;;;;;;;9.13;7.80;;;21.20;57.50;;;;;;5025700;28;20447;-69
2023/07/22 07:59:21;;;;;;;8.33;7.13;;;21.30;57.50;;;;;;5024285;28;20459;-69
2023/07/22 08:01:48;;;;;;;10.03;7.50;;;21.50;57.40;;;;;;5024222;28;20554;-68
2023/07/22 08:04:17;;;;;;;8.00;6.50;;;21.40;56.10;;;;;;5024747;28;20506;-69
2023/07/22 08:06:44;;;;;;;9.27;6.20;;;21.30;56.20;;;;;;5024350;28;20463;-69
2023/07/22 08:09:18;;;;;;;9.43;6.40;;;21.30;56.20;;;;;;5023507;28;20444;-69
2023/07/22 08:11:45;;;;;;;10.33;6.33;;;21.30;56.80;;;;;;5023732;28;20502;-68
2023/07/22 08:14:12;;;;;;;7.10;6.13;;;21.40;56.60;;;;;;5023002;28;20459;-69
2023/07/22 08:16:40;;;;;;;8.40;6.27;;;21.30;57.00;;;;;;5022816;28;20451;-69
2023/07/22 08:19:06;;;;;;;7.20;6.50;;;21.40;56.50;;;;;;5023984;28;20459;-69
2023/07/22 08:21:33;;;;;;;6.73;6.07;;;21.40;56.10;;;;;;5025215;28;20491;-68
2023/07/22 08:24:00;;;;;;;9.17;5.90;;;21.50;56.10;;;;;;5027426;28;20859;-69
2023/07/22 08:26:27;;;;;;;10.80;6.60;;;21.60;55.70;;;;;;5023820;28;20483;-69
2023/07/22 08:28:54;;;;;;;9.33;5.17;;;21.70;56.50;;;;;;5023481;28;20455;-69
2023/07/22 08:31:23;;;;;;;7.63;6.33;;;21.70;54.00;;;;;;5024214;28;20522;-68
2023/07/22 08:33:51;;;;;;;6.30;5.70;;;21.80;55.10;;;;;;5023601;28;20490;-69
2023/07/22 08:36:18;;;;;;;7.40;6.20;;;21.90;53.90;;;;;;5024202;28;20522;-68
2023/07/22 08:38:46;;;;;;;7.10;6.07;;;21.90;53.30;;;;;;5024314;28;20454;-69
2023/07/22 08:41:16;;;;;;;6.90;5.50;;;22.00;53.80;;;;;;5024282;28;20883;-68
2023/07/22 08:43:46;;;;;;;5.90;5.20;;;22.10;53.50;;;;;;5023318;28;20483;-69
2023/07/22 08:46:14;;;;;;;5.43;4.93;;;22.30;53.00;;;;;;5024146;28;20463;-69
2023/07/22 08:48:43;;;;;;;5.43;4.93;;;22.50;52.10;;;;;;5024968;28;20960;-69
2023/07/22 08:51:17;;;;;;;6.57;5.07;;;22.60;51.60;;;;;;5024382;28;20467;-69
2023/07/22 08:53:45;;;;;;;6.10;5.53;;;22.90;51.20;;;;;;5024101;28;20490;-69
2023/07/22 08:56:12;;;;;;;5.80;4.67;;;22.90;50.10;;;;;;5024286;28;20455;-69
2023/07/22 08:58:40;;;;;;;6.77;4.43;;;23.20;50.00;;;;;;5023052;28;20454;-68
2023/07/22 09:01:07;;;;;;;6.03;4.07;;;23.40;51.30;;;;;;5029209;28;20463;-68
2023/07/22 09:03:34;;;;;;;4.97;4.33;;;23.20;48.50;;;;;;5029080;28;20490;-68
2023/07/22 09:06:02;;;;;;;5.90;3.93;;;23.00;49.10;;;;;;5026728;28;20455;-69
2023/07/22 09:08:30;;;;;;;6.27;4.87;;;23.10;49.80;;;;;;5023258;28;20825;-69
2023/07/22 09:10:58;;;;;;;4.17;3.77;;;23.20;49.40;;;;;;5023600;28;20491;-68
2023/07/22 09:13:27;;;;;;;4.00;3.60;;;23.20;48.20;;;;;;5022448;28;20448;-69
2023/07/22 09:15:54;;;;;;;5.00;3.50;;;23.20;48.00;;;;;;5023153;28;20459;-69
2023/07/22 09:18:21;;;;;;;3.60;3.20;;;22.90;47.70;;;;;;5023560;28;20502;-69
2023/07/22 09:20:48;;;;;;;5.90;3.47;;;22.90;47.00;;;;;;5022751;28;20471;-68
2023/07/22 09:23:15;;;;;;;4.70;3.40;;;23.00;48.10;;;;;;5022987;28;20506;-69
2023/07/22 09:25:44;;;;;;;3.90;3.50;;;23.00;48.10;;;;;;5023241;28;20452;-69
2023/07/22 09:28:11;;;;;;;4.20;3.90;;;23.10;48.70;;;;;;5028525;28;20515;-69
2023/07/22 09:30:39;;;;;;;4.10;3.70;;;23.40;48.90;;;;;;5024986;28;20471;-68
2023/07/22 09:33:07;;;;;;;6.20;4.07;;;23.40;48.60;;;;;;5024513;28;20462;-68
2023/07/22 09:35:46;;;;;;;5.80;3.47;;;23.70;49.60;;;;;;5023469;28;20444;-69
2023/07/22 09:38:15;;;;;;;3.90;3.43;;;24.00;47.50;;;;;;5024135;28;20522;-69
2023/07/22 09:40:43;;;;;;;3.50;3.13;;;24.30;48.70;;;;;;5022592;28;20467;-68
2023/07/22 09:43:12;;;;;;;5.87;3.40;;;24.40;45.40;;;;;;5022412;28;20456;-68
2023/07/22 09:45:38;;;;;;;6.07;3.50;;;24.30;45.10;;;;;;5021670;28;20487;-69
2023/07/22 09:48:06;;;;;;;7.23;3.80;;;24.30;45.60;;;;;;5021277;28;20455;-69
2023/07/22 09:50:33;;;;;;;4.90;3.30;;;24.30;45.60;;;;;;5023282;28;20476;-68
2023/07/22 09:53:01;;;;;;;5.27;3.47;;;24.50;46.00;;;;;;5021111;28;20458;-69
2023/07/22 09:55:29;;;;;;;5.13;3.73;;;24.60;45.80;;;;;;5017825;28;20872;-69
2023/07/22 09:57:58;;;;;;;4.50;2.97;;;24.70;46.10;;;;;;5022503;28;20526;-69
2023/07/22 10:00:28;;;;;;;2.87;2.60;;;24.80;44.10;;;;;;5022018;28;20467;-68
2023/07/22 10:02:57;;;;;;;3.47;2.90;;;24.80;44.80;;;;;;5022286;28;20458;-69
2023/07/22 10:05:26;;;;;;;3.63;2.90;;;24.80;43.50;;;;;;5022766;28;20507;-69
2023/07/22 10:07:55;;;;;;;3.17;2.37;;;24.70;44.60;;;;;;5022654;28;20636;-69
2023/07/22 10:10:26;;;;;;;2.77;2.50;;;24.80;44.50;;;;;;5022354;28;20474;-68
2023/07/22 10:12:56;;;;;;;3.10;2.80;;;24.90;44.00;;;;;;5021977;28;20455;-68
2023/07/22 10:15:29;;;;;;;5.40;2.90;;;25.20;44.80;;;;;;5022674;28;20458;-69
2023/07/22 10:17:57;;;;;;;4.00;2.63;;;25.50;43.50;;;;;;5022202;28;20983;-69
2023/07/22 10:20:25;;;;;;;3.80;2.70;;;25.60;44.00;;;;;;5021862;28;20467;-68
2023/07/22 10:22:52;;;;;;;3.10;2.23;;;26.10;43.80;;;;;;5022338;28;20466;-68
2023/07/22 10:25:20;;;;;;;5.20;2.90;;;26.50;40.20;;;;;;5022102;28;20480;-69
2023/07/22 10:27:48;;;;;;;2.53;2.33;;;26.90;40.50;;;;;;5021768;28;20456;-69
2023/07/22 10:30:17;;;;;;;2.30;2.10;;;26.80;38.70;;;;;;5022961;28;20475;-68
2023/07/22 10:32:47;;;;;;;3.07;2.20;;;26.80;37.00;;;;;;5021832;28;20564;-69
2023/07/22 10:35:23;;;;;;;2.97;2.70;;;26.90;38.00;;;;;;5022503;28;20869;-69
2023/07/22 10:37:50;;;;;;;3.30;2.10;;;27.20;38.40;;;;;;5021112;28;20443;-69
2023/07/22 10:40:25;;;;;;;3.40;2.37;;;27.10;35.70;;;;;;5022743;28;20464;-70
2023/07/22 10:42:54;;;;;;;5.20;2.20;;;27.20;36.30;;;;;;5024513;28;20439;-68
2023/07/22 10:45:29;;;;;;;2.40;2.10;;;27.20;36.30;;;;;;5025530;28;20896;-69
2023/07/22 10:48:06;;;;;;;3.67;2.23;;;27.20;35.90;;;;;;5025579;28;20936;-69
2023/07/22 10:50:41;;;;;;;3.10;2.43;;;27.40;36.10;;;;;;5025896;28;20470;-68
2023/07/22 10:53:10;;;;;;;2.43;2.00;;;27.50;36.30;;;;;;5026455;28;20451;-69
2023/07/22 10:56:08;;;;;;;3.07;2.70;;;27.80;36.00;;;;;;5025501;28;20443;-69
2023/07/22 10:58:56;;;;;;;2.63;2.23;;;27.80;35.20;;;;;;5026289;28;20937;-70
2023/07/22 11:01:25;;;;;;;3.40;2.83;;;28.00;35.70;;;;;;5025706;28;20467;-69
2023/07/22 11:04:15;;;;;;;3.20;2.90;;;28.10;35.80;;;;;;5024998;28;20530;-69
2023/07/22 11:06:55;;;;;;;4.37;2.60;;;28.40;35.10;;;;;;5026017;28;20436;-69
2023/07/22 11:09:43;;;;;;;3.03;2.60;;;28.40;33.60;;;;;;5024140;28;20852;-69
2023/07/22 11:12:15;;;;;;;4.20;2.87;;;28.40;34.40;;;;;;5029701;28;20490;-69
2023/07/22 11:14:48;;;;;;;4.70;2.57;;;28.40;35.70;;;;;;5034065;28;20830;-69
2023/07/22 11:17:14;;;;;;;3.47;2.87;;;28.60;34.80;;;;;;5029784;28;20804;-70
2023/07/22 11:19:43;;;;;;;2.83;2.17;;;28.80;34.60;;;;;;5027106;28;20459;-71
2023/07/22 11:22:10;;;;;;;4.50;2.90;;;28.90;34.00;;;;;;5027111;28;20448;-69
2023/07/22 11:24:37;;;;;;;4.10;2.60;;;29.40;34.60;;;;;;5026239;28;20479;-70
2023/07/22 11:27:08;;;;;;;2.63;2.40;;;30.10;32.50;;;;;;5024342;28;20451;-70
2023/07/22 11:29:35;;;;;;;5.63;2.70;;;30.30;30.20;;;;;;5026394;28;20871;-69
2023/07/22 11:32:02;;;;;;;3.90;3.13;;;30.10;31.50;;;;;;5025370;28;20459;-68
2023/07/22 11:34:29;;;;;;;5.73;2.80;;;30.00;32.30;;;;;;5023592;28;20451;-68
2023/07/22 11:37:00;;;;;;;7.47;2.80;;;30.00;31.30;;;;;;5025132;28;20462;-68
2023/07/22 11:39:31;;;;;;;3.30;2.90;;;30.20;31.40;;;;;;5016172;28;20855;-68
2023/07/22 11:42:01;;;;;;;5.00;3.10;;;30.20;30.00;;;;;;5016657;28;20450;-69
2023/07/22 11:44:29;;;;;;;3.20;2.60;;;30.60;30.30;;;;;;5015875;28;20506;-69
2023/07/22 11:46:58;;;;;;;3.23;2.93;;;31.10;29.60;;;;;;5023072;28;20828;-68
2023/07/22 11:49:26;;;;;;;3.30;3.00;;;31.40;28.80;;;;;;5027874;28;20451;-68
2023/07/22 11:51:56;;;;;;;4.00;3.00;;;32.00;28.60;;;;;;5025582;28;20451;-69
2023/07/22 11:54:24;;;;;;;3.80;3.40;;;32.40;28.00;;;;;;5022834;28;20462;-69
2023/07/22 11:56:51;;;;;;;8.47;3.90;;;32.70;27.60;;;;;;5024463;28;20825;-67
2023/07/22 11:59:32;;;;;;;2.77;2.57;;;32.40;26.80;;;;;;5024233;28;20446;-69
2023/07/22 12:02:01;;;;;;;3.30;3.00;;;32.40;27.50;;;;;;5024830;28;20430;-69
2023/07/22 12:04:28;;;;;;;3.33;3.00;;;32.20;27.40;;;;;;5023839;28;20486;-68
2023/07/22 12:06:55;;;;;;;4.97;2.90;;;32.60;27.30;;;;;;5019569;28;20450;-69
2023/07/22 12:09:24;;;;;;;5.33;2.97;;;32.30;26.30;;;;;;5022627;28;20505;-69
2023/07/22 12:11:56;;;;;;;2.90;2.60;;;32.20;27.10;;;;;;5023978;28;20474;-69
2023/07/22 12:14:23;;;;;;;3.30;3.00;;;32.20;27.00;;;;;;5023975;28;20465;-69
2023/07/22 12:16:56;;;;;;;8.43;2.80;;;31.90;27.60;;;;;;5029309;28;20438;-69
2023/07/22 12:19:23;;;;;;;2.47;2.27;;;32.10;28.20;;;;;;5025839;28;20446;-69
2023/07/22 12:21:51;;;;;;;2.20;2.10;;;32.00;25.70;;;;;;5026172;28;20467;-68
2023/07/22 12:24:17;;;;;;;3.07;2.60;;;32.30;26.20;;;;;;5022867;28;20466;-69
2023/07/22 12:26:45;;;;;;;3.03;2.83;;;32.80;24.80;;;;;;5023037;28;20447;-69
2023/07/22 12:29:12;;;;;;;2.83;2.20;;;33.60;23.70;;;;;;5023396;28;20553;-69
2023/07/22 12:31:39;;;;;;;3.10;2.67;;;34.20;23.00;;;;;;5024403;28;20474;-68
2023/07/22 12:34:06;;;;;;;3.50;2.63;;;34.00;22.50;;;;;;5023409;28;20447;-68
2023/07/22 12:36:33;;;;;;;4.83;2.50;;;33.90;22.90;;;;;;5023804;28;20462;-69
2023/07/22 12:39:01;;;;;;;3.50;2.40;;;34.60;22.30;;;;;;5025647;28;20454;-69
2023/07/22 12:41:28;;;;;;;3.17;2.83;;;35.20;21.50;;;;;;5024408;28;20463;-69
2023/07/22 12:43:56;;;;;;;4.83;2.60;;;35.70;21.10;;;;;;5023018;28;20455;-69
2023/07/22 12:46:23;;;;;;;4.03;2.50;;;36.40;20.90;;;;;;5018098;28;21011;-69